createdAt,value
2023-01-13T00:01:58.472Z,6.50
2023-01-13T00:04:29.098Z,5.95
2023-01-13T00:06:59.687Z,7.30
2023-01-13T00:09:30.141Z,23.38
2023-01-13T00:12:00.680Z,6.53
2023-01-13T00:14:37.021Z,4.68
2023-01-13T00:17:07.877Z,5.50
2023-01-13T00:19:38.349Z,6.32
2023-01-13T00:22:09.538Z,6.13
2023-01-13T00:24:39.972Z,6.50
2023-01-13T00:27:10.576Z,7.65
2023-01-13T00:29:44.024Z,6.47
2023-01-13T00:32:15.738Z,6.75
2023-01-13T00:34:46.161Z,6.38
2023-01-13T00:37:16.818Z,6.60
2023-01-13T00:39:47.246Z,7.55
2023-01-13T00:42:30.396Z,6.72
2023-01-13T00:45:03.979Z,6.38
2023-01-13T00:47:36.025Z,6.80
2023-01-13T00:50:06.641Z,5.50
2023-01-13T00:52:37.491Z,5.20
2023-01-13T00:55:09.106Z,5.57
2023-01-13T00:57:40.284Z,6.57
2023-01-13T01:00:15.349Z,7.82
2023-01-13T01:02:45.925Z,7.18
2023-01-13T01:05:16.532Z,6.93
2023-01-13T01:07:47.203Z,6.32
2023-01-13T01:10:18.021Z,6.15
2023-01-13T01:12:48.571Z,6.43
2023-01-13T01:15:21.793Z,7.15
2023-01-13T01:17:52.429Z,6.90
2023-01-13T01:20:22.988Z,7.55
2023-01-13T01:22:53.557Z,8.82
2023-01-13T01:25:24.051Z,10.23
2023-01-13T01:27:54.628Z,9.88
2023-01-13T01:30:27.769Z,9.85
2023-01-13T01:32:58.401Z,9.70
2023-01-13T01:35:28.940Z,8.80
2023-01-13T01:37:59.501Z,8.52
2023-01-13T01:40:30.770Z,8.55
2023-01-13T01:43:13.713Z,7.72
2023-01-13T01:45:46.755Z,7.68
2023-01-13T01:48:17.691Z,9.35
2023-01-13T01:50:48.423Z,10.15
2023-01-13T01:53:22.480Z,10.43
2023-01-13T01:55:53.763Z,10.80
2023-01-13T01:58:28.987Z,11.45
2023-01-13T02:01:02.631Z,10.93
2023-01-13T02:03:33.390Z,11.20
2023-01-13T02:06:04.164Z,10.80
2023-01-13T02:08:34.750Z,10.57
2023-01-13T02:11:05.231Z,10.75
2023-01-13T02:13:33.230Z,10.82
2023-01-13T02:16:14.848Z,10.90
2023-01-13T02:18:59.343Z,11.07
2023-01-13T02:22:02.778Z,9.27
2023-01-13T02:24:59.649Z,10.93
2023-01-13T02:27:52.338Z,10.88
2023-01-13T02:31:09.626Z,9.77
2023-01-13T02:36:20.979Z,7.72
2023-01-13T02:38:57.579Z,10.07
2023-01-13T02:41:45.788Z,10.90
2023-01-13T02:44:19.794Z,12.00
2023-01-13T02:47:00.838Z,11.57
2023-01-13T02:49:37.324Z,11.52
2023-01-13T02:52:14.146Z,9.30
2023-01-13T02:54:50.964Z,10.50
2023-01-13T02:57:23.690Z,10.98
2023-01-13T02:59:58.972Z,10.88
2023-01-13T03:02:32.087Z,10.50
2023-01-13T03:05:03.657Z,10.63
2023-01-13T03:08:06.759Z,11.88
2023-01-13T03:10:50.797Z,9.57
2023-01-13T03:13:36.503Z,10.23
2023-01-13T03:16:18.510Z,8.38
2023-01-13T03:19:00.462Z,7.40
2023-01-13T03:21:38.901Z,7.95
2023-01-13T03:24:16.192Z,7.03
2023-01-13T03:26:51.725Z,8.35
2023-01-13T03:32:01.117Z,8.52
2023-01-13T03:34:38.404Z,8.00
2023-01-13T03:37:11.462Z,9.73
2023-01-13T03:39:47.063Z,9.40
2023-01-13T03:42:22.190Z,9.15
2023-01-13T03:44:55.797Z,6.88
2023-01-13T03:47:31.941Z,9.07
2023-01-13T03:50:08.505Z,8.98
2023-01-13T03:52:43.548Z,8.50
2023-01-13T03:55:18.836Z,8.98
2023-01-13T03:57:56.404Z,8.80
2023-01-13T04:00:31.491Z,9.48
2023-01-13T04:03:07.998Z,10.45
2023-01-13T04:05:46.440Z,9.25
2023-01-13T04:08:23.127Z,10.43
2023-01-13T04:10:58.241Z,9.63
2023-01-13T04:13:33.186Z,11.23
2023-01-13T04:16:04.317Z,10.82
2023-01-13T04:18:34.908Z,10.25
2023-01-13T04:21:09.044Z,10.02
2023-01-13T04:23:39.615Z,8.50
2023-01-13T04:26:10.179Z,8.15
2023-01-13T04:28:41.046Z,9.20
2023-01-13T04:31:11.655Z,9.55
2023-01-13T04:33:42.422Z,10.05
2023-01-13T04:36:15.997Z,10.07
2023-01-13T04:38:46.739Z,9.30
2023-01-13T04:41:17.390Z,9.05
2023-01-13T04:43:47.928Z,10.23
2023-01-13T04:46:18.726Z,9.15
2023-01-13T04:48:49.397Z,9.93
2023-01-13T04:51:22.892Z,9.18
2023-01-13T04:53:53.464Z,10.70
2023-01-13T04:56:24.076Z,10.43
2023-01-13T04:58:54.676Z,9.85
2023-01-13T05:01:25.365Z,10.48
2023-01-13T05:03:56.084Z,11.15
2023-01-13T05:06:29.380Z,8.90
2023-01-13T05:09:00.435Z,10.63
2023-01-13T05:11:43.254Z,9.98
2023-01-13T05:14:26.199Z,11.07
2023-01-13T05:17:04.764Z,12.27
2023-01-13T05:19:39.399Z,14.02
2023-01-13T05:22:24.869Z,12.32
2023-01-13T05:25:22.632Z,10.23
2023-01-13T05:27:54.057Z,9.85
2023-01-13T05:30:25.751Z,11.82
2023-01-13T05:32:56.579Z,12.75
2023-01-13T05:35:29.309Z,15.23
2023-01-13T05:38:02.547Z,16.25
2023-01-13T05:40:45.372Z,16.60
2023-01-13T05:43:24.941Z,17.25
2023-01-13T05:45:59.863Z,21.02
2023-01-13T05:48:32.532Z,14.70
2023-01-13T05:51:03.305Z,46.40
2023-01-13T05:53:37.331Z,62.65
2023-01-13T05:56:08.922Z,34.85
2023-01-13T05:58:39.525Z,24.83
2023-01-13T06:01:13.685Z,35.72
2023-01-13T06:03:44.311Z,29.23
2023-01-13T06:06:14.832Z,24.15
2023-01-13T06:08:48.054Z,29.48
2023-01-13T06:11:18.497Z,28.45
2023-01-13T06:13:49.052Z,24.20
2023-01-13T06:16:19.725Z,26.00
2023-01-13T06:18:50.311Z,27.70
2023-01-13T06:21:20.839Z,28.13
2023-01-13T06:23:53.967Z,23.67
2023-01-13T06:26:28.027Z,20.45
2023-01-13T06:28:58.576Z,22.02
2023-01-13T06:31:29.701Z,21.48
2023-01-13T06:34:02.652Z,20.38
2023-01-13T06:36:38.782Z,20.00
2023-01-13T06:39:14.632Z,24.85
2023-01-13T06:41:57.432Z,28.95
2023-01-13T06:44:28.209Z,30.13
2023-01-13T06:46:58.696Z,30.40
2023-01-13T06:49:29.525Z,29.63
2023-01-13T06:52:00.130Z,27.85
2023-01-13T06:54:34.789Z,29.70
2023-01-13T06:57:05.640Z,28.52
2023-01-13T06:59:36.951Z,30.63
2023-01-13T07:02:07.521Z,28.48
2023-01-13T07:04:38.204Z,29.55
2023-01-13T07:07:08.859Z,33.40
2023-01-13T07:09:42.311Z,39.92
2023-01-13T07:12:12.818Z,37.85
2023-01-13T07:14:55.686Z,32.05
2023-01-13T07:17:27.115Z,30.67
2023-01-13T07:19:58.270Z,29.70
2023-01-13T07:22:28.739Z,37.60
2023-01-13T07:25:01.919Z,31.92
2023-01-13T07:27:33.888Z,34.23
2023-01-13T07:30:04.540Z,37.42
2023-01-13T07:32:36.483Z,38.10
2023-01-13T07:35:08.178Z,34.38
2023-01-13T07:37:40.636Z,31.73
2023-01-13T07:40:15.167Z,32.53
2023-01-13T07:42:57.947Z,32.13
2023-01-13T07:45:29.626Z,33.35
2023-01-13T07:48:00.199Z,31.92
2023-01-13T07:50:30.878Z,37.50
2023-01-13T07:53:01.484Z,32.03
2023-01-13T07:55:34.976Z,33.55
2023-01-13T07:58:05.752Z,33.13
2023-01-13T08:00:36.408Z,32.65
2023-01-13T08:03:07.604Z,30.70
2023-01-13T08:05:38.757Z,33.08
2023-01-13T08:08:09.494Z,34.58
2023-01-13T08:10:42.634Z,32.25
2023-01-13T08:13:22.917Z,31.15
2023-01-13T08:15:55.066Z,29.85
2023-01-13T08:18:25.815Z,24.27
2023-01-13T08:20:57.831Z,23.60
2023-01-13T08:23:28.344Z,27.80
2023-01-13T08:26:03.439Z,22.52
2023-01-13T08:28:34.638Z,19.00
2023-01-13T08:31:06.904Z,24.88
2023-01-13T08:33:37.853Z,25.67
2023-01-13T08:36:09.675Z,26.42
2023-01-13T08:38:41.163Z,21.35
2023-01-13T08:41:15.966Z,24.17
2023-01-13T08:43:46.478Z,24.07
2023-01-13T08:46:17.089Z,19.38
2023-01-13T08:48:47.517Z,19.35
2023-01-13T08:51:20.299Z,18.80
2023-01-13T08:53:50.879Z,17.48
2023-01-13T08:56:24.248Z,18.45
2023-01-13T08:58:55.645Z,18.98
2023-01-13T09:01:27.112Z,23.25
2023-01-13T09:03:58.212Z,24.08
2023-01-13T09:06:28.869Z,20.00
2023-01-13T09:08:59.356Z,20.23
2023-01-13T09:11:47.088Z,24.98
2023-01-13T09:14:21.008Z,23.35
2023-01-13T09:16:51.654Z,21.48
2023-01-13T09:19:22.152Z,19.95
2023-01-13T09:21:53.061Z,25.25
2023-01-13T09:24:24.268Z,26.08
2023-01-13T09:26:57.499Z,27.42
2023-01-13T09:29:28.132Z,29.02
2023-01-13T09:31:59.441Z,25.48
2023-01-13T09:34:42.822Z,25.35
2023-01-13T09:37:13.295Z,27.42
2023-01-13T09:39:43.749Z,25.73
2023-01-13T09:42:39.157Z,24.33
2023-01-13T09:45:15.053Z,24.42
2023-01-13T09:47:56.073Z,22.27
2023-01-13T09:50:34.885Z,22.20
2023-01-13T09:53:05.679Z,22.48
2023-01-13T09:55:38.562Z,23.58
2023-01-13T09:58:17.014Z,24.38
2023-01-13T10:00:54.996Z,26.05
2023-01-13T10:03:29.059Z,25.40
2023-01-13T10:06:07.069Z,24.02
2023-01-13T10:08:40.984Z,24.85
2023-01-13T10:11:30.673Z,24.90
2023-01-13T10:14:06.008Z,19.17
2023-01-13T10:16:43.958Z,21.23
2023-01-13T10:19:20.568Z,21.58
2023-01-13T10:22:18.513Z,20.98
2023-01-13T10:25:12.103Z,21.42
2023-01-13T10:27:47.074Z,22.15
2023-01-13T10:30:31.363Z,22.75
2023-01-13T10:33:04.115Z,22.75
2023-01-13T10:35:52.988Z,21.95
2023-01-13T10:38:25.959Z,26.23
2023-01-13T10:40:58.152Z,21.08
2023-01-13T10:43:29.821Z,21.55
2023-01-13T10:46:06.623Z,22.70
2023-01-13T10:48:40.282Z,17.58
2023-01-13T10:51:21.528Z,17.13
2023-01-13T10:54:03.759Z,16.05
2023-01-13T10:56:36.127Z,15.82
2023-01-13T10:59:17.144Z,17.92
2023-01-13T11:02:13.131Z,14.05
2023-01-13T11:05:21.335Z,11.80
2023-01-13T11:07:56.516Z,10.55
2023-01-13T11:10:28.986Z,8.82
2023-01-13T11:13:08.853Z,9.82
2023-01-13T11:15:46.610Z,10.00
2023-01-13T11:18:31.654Z,10.75
2023-01-13T11:21:03.470Z,10.47
2023-01-13T11:23:40.247Z,8.68
2023-01-13T11:26:20.086Z,9.20
2023-01-13T11:28:55.245Z,7.10
2023-01-13T11:31:30.995Z,7.20
2023-01-13T11:34:11.056Z,6.93
2023-01-13T11:36:46.851Z,7.65
2023-01-13T11:39:24.953Z,9.13
2023-01-13T11:42:14.941Z,8.60
2023-01-13T11:44:52.205Z,10.68
2023-01-13T11:47:26.771Z,6.50
2023-01-13T11:50:00.091Z,5.07
2023-01-13T11:52:46.515Z,5.70
2023-01-13T11:55:29.468Z,5.00
2023-01-13T11:58:17.835Z,4.80
2023-01-13T12:01:05.996Z,4.93
2023-01-13T12:03:42.570Z,5.25
2023-01-13T12:06:24.646Z,5.13
2023-01-13T12:09:16.844Z,5.60
2023-01-13T12:12:14.733Z,5.65
2023-01-13T12:14:56.320Z,6.25
2023-01-13T12:17:36.230Z,5.75
2023-01-13T12:20:24.473Z,4.45
2023-01-13T12:23:02.373Z,4.32
2023-01-13T12:25:37.732Z,4.28
2023-01-13T12:30:47.069Z,3.97
2023-01-13T12:33:32.821Z,3.30
2023-01-13T12:36:09.217Z,3.45
2023-01-13T12:38:49.549Z,5.18
2023-01-13T12:41:39.029Z,4.13
2023-01-13T12:44:18.470Z,4.10
2023-01-13T12:46:56.123Z,3.65
2023-01-13T12:49:32.534Z,4.18
2023-01-13T12:52:17.944Z,4.82
2023-01-13T12:55:22.742Z,4.15
2023-01-13T12:58:01.885Z,4.78
2023-01-13T13:00:38.809Z,7.93
2023-01-13T13:03:30.802Z,7.18
2023-01-13T13:06:13.006Z,6.43
2023-01-13T13:08:53.938Z,6.00
2023-01-13T13:11:54.759Z,9.52
2023-01-13T13:14:55.071Z,8.63
2023-01-13T13:17:47.022Z,11.13
2023-01-13T13:20:47.616Z,6.63
2023-01-13T13:23:50.937Z,4.82
2023-01-13T13:26:39.157Z,3.88
2023-01-13T13:29:24.846Z,3.80
2023-01-13T13:32:14.107Z,4.10
2023-01-13T13:34:52.426Z,4.40
2023-01-13T13:37:58.275Z,6.20
2023-01-13T13:40:41.750Z,5.80
2023-01-13T13:43:30.465Z,6.80
2023-01-13T13:46:13.480Z,6.07
2023-01-13T13:48:54.655Z,5.50
2023-01-13T13:51:31.246Z,5.15
2023-01-13T13:54:02.974Z,6.10
2023-01-13T13:56:38.821Z,5.13
2023-01-13T13:59:14.248Z,5.35
2023-01-13T14:04:22.272Z,4.47
2023-01-13T14:06:54.347Z,5.00
2023-01-13T14:09:28.787Z,5.82
2023-01-13T14:12:01.539Z,4.70
2023-01-13T14:14:34.841Z,4.22
2023-01-13T14:17:08.029Z,3.88
2023-01-13T14:19:44.426Z,5.15
2023-01-13T14:22:19.495Z,4.50
2023-01-13T14:24:55.659Z,4.43
2023-01-13T14:27:28.234Z,4.53
2023-01-13T14:30:04.023Z,5.32
2023-01-13T14:32:38.206Z,6.20
2023-01-13T14:35:10.683Z,5.80
2023-01-13T14:37:44.242Z,5.78
2023-01-13T14:40:47.712Z,5.97
2023-01-13T14:43:21.282Z,6.55
2023-01-13T14:46:03.295Z,6.65
2023-01-13T14:48:36.271Z,7.22
2023-01-13T14:51:10.759Z,7.47
2023-01-13T14:53:46.423Z,7.45
2023-01-13T14:56:42.966Z,7.03
2023-01-13T14:59:43.362Z,6.47
2023-01-13T15:02:43.422Z,7.97
2023-01-13T15:05:34.021Z,7.65
2023-01-13T15:08:09.446Z,7.95
2023-01-13T15:10:48.668Z,14.85
2023-01-13T15:13:42.601Z,14.07
2023-01-13T15:16:22.354Z,14.35
2023-01-13T15:18:55.829Z,14.27
2023-01-13T15:21:26.829Z,10.63
2023-01-13T15:23:57.391Z,11.48
2023-01-13T15:26:29.976Z,10.02
2023-01-13T15:29:01.811Z,12.25
2023-01-13T15:31:32.491Z,12.05
2023-01-13T15:34:05.586Z,11.70
2023-01-13T15:36:38.119Z,12.20
2023-01-13T15:39:09.934Z,12.70
2023-01-13T15:41:52.765Z,17.38
2023-01-13T15:44:35.611Z,25.38
2023-01-13T15:47:09.926Z,28.00
2023-01-13T15:49:45.451Z,30.38
2023-01-13T15:52:22.983Z,25.85
2023-01-13T15:54:54.547Z,27.40
2023-01-13T15:57:27.787Z,40.40
2023-01-13T16:00:00.706Z,47.50
2023-01-13T16:02:31.529Z,48.88
2023-01-13T16:05:04.826Z,52.13
2023-01-13T16:07:35.747Z,50.28
2023-01-13T16:10:07.554Z,47.92
2023-01-13T16:12:38.273Z,46.67
2023-01-13T16:15:09.730Z,44.80
2023-01-13T16:17:40.791Z,45.63
2023-01-13T16:20:19.783Z,47.95
2023-01-13T16:22:50.367Z,40.25
2023-01-13T16:25:23.383Z,38.13
2023-01-13T16:27:54.724Z,41.13
2023-01-13T16:30:29.386Z,41.10
2023-01-13T16:33:00.674Z,40.97
2023-01-13T16:35:35.535Z,40.47
2023-01-13T16:38:19.512Z,39.90
2023-01-13T16:40:52.489Z,39.70
2023-01-13T16:43:23.271Z,39.45
2023-01-13T16:45:53.958Z,39.53
2023-01-13T16:48:24.714Z,39.25
2023-01-13T16:50:58.288Z,39.78
2023-01-13T16:53:29.142Z,44.75
2023-01-13T16:55:59.713Z,43.00
2023-01-13T16:58:30.526Z,41.53
2023-01-13T17:01:01.300Z,43.33
2023-01-13T17:03:36.081Z,44.20
2023-01-13T17:06:09.994Z,41.72
2023-01-13T17:08:40.852Z,43.33
2023-01-13T17:11:11.407Z,42.35
2023-01-13T17:13:42.209Z,42.03
2023-01-13T17:16:20.503Z,43.95
2023-01-13T17:18:52.036Z,39.83
2023-01-13T17:21:25.546Z,37.22
2023-01-13T17:23:56.289Z,40.40
2023-01-13T17:26:37.448Z,36.45
2023-01-13T17:29:09.127Z,42.08
2023-01-13T17:31:39.965Z,44.65
2023-01-13T17:34:15.176Z,44.25
2023-01-13T17:36:48.984Z,44.30
2023-01-13T17:39:21.828Z,43.97
2023-01-13T17:41:52.841Z,45.50
2023-01-13T17:44:26.631Z,42.30
2023-01-13T17:46:57.109Z,42.25
2023-01-13T17:49:27.928Z,46.55
2023-01-13T17:52:01.184Z,49.17
2023-01-13T17:54:31.796Z,66.45
2023-01-13T17:57:02.354Z,50.95
2023-01-13T17:59:33.099Z,43.22
2023-01-13T18:02:03.968Z,44.92
2023-01-13T18:04:35.029Z,43.30
2023-01-13T18:07:08.591Z,45.15
2023-01-13T18:09:40.111Z,46.60
2023-01-13T18:12:10.985Z,57.13
2023-01-13T18:14:42.033Z,53.28
2023-01-13T18:17:12.922Z,49.00
2023-01-13T18:19:55.882Z,48.08
2023-01-13T18:22:41.317Z,46.28
2023-01-13T18:25:27.601Z,42.03
2023-01-13T18:27:59.154Z,34.30
2023-01-13T18:30:29.971Z,38.13
2023-01-13T18:33:01.053Z,37.20
2023-01-13T18:35:32.155Z,39.42
2023-01-13T18:38:07.681Z,42.67
2023-01-13T18:40:39.103Z,45.67
2023-01-13T18:43:07.321Z,42.25
2023-01-13T18:45:38.045Z,49.28
2023-01-13T18:48:09.235Z,52.22
2023-01-13T18:50:39.773Z,52.60
2023-01-13T18:53:13.991Z,50.90
2023-01-13T18:55:45.303Z,39.90
2023-01-13T18:58:16.184Z,50.60
2023-01-13T19:00:47.489Z,55.47
2023-01-13T19:03:29.538Z,61.70
2023-01-13T19:06:06.326Z,53.10
2023-01-13T19:08:39.585Z,48.92
2023-01-13T19:11:10.539Z,52.83
2023-01-13T19:13:42.001Z,48.35
2023-01-13T19:16:13.574Z,51.97
2023-01-13T19:18:44.989Z,41.92
2023-01-13T19:21:15.728Z,40.35
2023-01-13T19:23:49.272Z,45.40
2023-01-13T19:26:20.348Z,47.47
2023-01-13T19:28:51.481Z,45.28
2023-01-13T19:31:22.257Z,44.78
2023-01-13T19:33:52.991Z,43.13
2023-01-13T19:36:23.541Z,43.25
2023-01-13T19:38:56.917Z,51.40
2023-01-13T19:41:40.653Z,47.53
2023-01-13T19:44:26.661Z,46.60
2023-01-13T19:46:57.523Z,45.50
2023-01-13T19:49:28.608Z,40.63
2023-01-13T19:51:59.442Z,36.30
2023-01-13T19:54:32.860Z,28.50
2023-01-13T19:57:03.506Z,24.38
2023-01-13T19:59:36.819Z,25.52
2023-01-13T20:02:10.001Z,25.15
2023-01-13T20:04:46.087Z,31.65
2023-01-13T20:07:17.057Z,31.30
2023-01-13T20:09:50.455Z,37.35
2023-01-13T20:12:22.807Z,39.40
2023-01-13T20:14:53.883Z,36.17
2023-01-13T20:17:26.415Z,38.35
2023-01-13T20:19:58.310Z,37.80
2023-01-13T20:22:28.893Z,42.20
2023-01-13T20:25:02.401Z,41.33
2023-01-13T20:27:34.127Z,42.10
2023-01-13T20:30:04.796Z,41.83
2023-01-13T20:32:35.424Z,42.42
2023-01-13T20:35:06.300Z,42.30
2023-01-13T20:37:36.837Z,41.35
2023-01-13T20:40:13.573Z,38.92
2023-01-13T20:42:45.606Z,40.53
2023-01-13T20:45:21.022Z,39.75
2023-01-13T20:47:52.221Z,39.45
2023-01-13T20:50:23.173Z,41.08
2023-01-13T20:52:53.821Z,44.80
2023-01-13T20:55:27.181Z,42.47
2023-01-13T20:57:57.794Z,41.80
2023-01-13T21:00:29.973Z,45.85
2023-01-13T21:03:00.559Z,47.08
2023-01-13T21:05:31.270Z,47.75
2023-01-13T21:08:01.915Z,42.83
2023-01-13T21:10:35.685Z,44.85
2023-01-13T21:13:18.830Z,42.22
2023-01-13T21:15:51.175Z,37.75
2023-01-13T21:18:34.081Z,39.92
2023-01-13T21:21:11.867Z,37.72
2023-01-13T21:23:43.049Z,35.03
2023-01-13T21:26:19.767Z,38.67
2023-01-13T21:28:50.696Z,36.13
2023-01-13T21:31:21.364Z,32.25
2023-01-13T21:33:56.249Z,31.45
2023-01-13T21:36:26.866Z,28.88
2023-01-13T21:38:58.610Z,29.98
2023-01-13T21:41:44.211Z,31.42
2023-01-13T21:44:30.359Z,30.13
2023-01-13T21:47:13.339Z,35.25
2023-01-13T21:49:44.627Z,34.80
2023-01-13T21:52:15.750Z,32.35
2023-01-13T21:54:58.383Z,31.17
2023-01-13T21:57:31.678Z,32.45
2023-01-13T22:00:02.296Z,28.77
2023-01-13T22:02:36.825Z,25.27
2023-01-13T22:05:10.409Z,17.38
2023-01-13T22:07:42.352Z,19.73
2023-01-13T22:10:16.445Z,22.67
2023-01-13T22:12:50.024Z,21.35
2023-01-13T22:15:21.116Z,25.77
2023-01-13T22:17:55.095Z,25.73
2023-01-13T22:20:26.081Z,26.30
2023-01-13T22:22:56.798Z,27.92
2023-01-13T22:25:27.452Z,31.15
2023-01-13T22:28:03.982Z,31.38
2023-01-13T22:30:34.844Z,31.25
2023-01-13T22:33:05.465Z,28.30
2023-01-13T22:35:36.162Z,26.05
2023-01-13T22:38:06.814Z,24.48
2023-01-13T22:40:37.452Z,21.27
2023-01-13T22:43:10.629Z,21.50
2023-01-13T22:45:41.376Z,22.83
2023-01-13T22:48:12.431Z,23.27
2023-01-13T22:50:44.113Z,23.63
2023-01-13T22:53:14.708Z,23.55
2023-01-13T22:55:45.299Z,25.55
2023-01-13T22:58:18.525Z,26.70
2023-01-13T23:00:49.415Z,25.65
2023-01-13T23:03:20.121Z,26.35
2023-01-13T23:05:50.754Z,25.90
2023-01-13T23:08:21.449Z,24.85
2023-01-13T23:10:51.964Z,24.05
2023-01-13T23:13:25.130Z,22.90
2023-01-13T23:15:56.015Z,21.90
2023-01-13T23:18:28.480Z,13.13
2023-01-13T23:20:59.019Z,13.32
2023-01-13T23:23:29.644Z,14.85
2023-01-13T23:26:00.226Z,14.50
2023-01-13T23:28:33.721Z,15.40
2023-01-13T23:31:09.900Z,14.13
2023-01-13T23:33:41.502Z,16.10
2023-01-13T23:36:15.206Z,16.15
2023-01-13T23:38:46.538Z,17.27
2023-01-13T23:41:19.328Z,17.15
2023-01-13T23:43:56.720Z,17.48
2023-01-13T23:46:28.313Z,17.55
2023-01-13T23:48:58.999Z,15.45
2023-01-13T23:51:30.338Z,16.77
2023-01-13T23:54:01.499Z,16.92
2023-01-13T23:56:35.164Z,16.50
2023-01-13T23:59:08.517Z,15.88
